航空気象通報

ウインドサーファーのための航空気象通報による風予報です。

2/28-3/1の航空気象通報(国内、海外)

2007年02月28日 20時22分11秒 | TAF
羽田空港
TAF RJTT 280851Z 281812 01010KT 9999 FEW030
BECMG 0306 07008KT
日本時間1日03-12時:010度から10ノットの風
12-15時:風が変化
15-21時:070度から8ノットの風


那覇空港
ROAH 280843Z 281812 08012KT 9999 FEW020 SCT035
BECMG 2124 10012KT
日本時間1日03-06時:080度から12ノットの風
06-09時:風が変化
09-21時:100度から12ノットの風


マウイのカフルイ空港
PHOG 281147Z 281212 05012KT P6SM BKN060
FM2000 06018G25KT P6SM SCT050
FM0600 05012KT P6SM SCT050
ハワイ時間28日02-10時:050度から12ノットの風

10-20時:060度から18ノット、突風25ノット
20時-1日02時:050度から12ノットの風


サイパン空港
PGSN 281126Z 281212 VRB04KT P6SM FEW025
マリアナ時間28日22時-1日22時:風向不定4ノットの風


グアム空港
PGUM 281126Z 281212 VRB04KT 4SM HZ FEW025
マリアナ時間28日22時-1日22時:風向不定4ノットの風
、ヘイズ(もやのことです;艇庫の名前と同じ)

コメント
この記事をはてなブックマークに追加

2/27-28の航空気象通報(国内、海外)

2007年02月27日 19時40分04秒 | TAF
羽田空港
TAF RJTT 270843Z 271812 36008KT 8000 FEW020 SCT050
BECMG 0003 01018KT
TEMPO 0312 36025G35KT
日本時間28日03-09時:360度から8ノットの風
09-12時:風が変化
12-21時:010度から18ノットの風
但し、12-21時:一時、360度から25ノット、突風35ノット


那覇空港
ROAH 270841Z 271812 04010KT 9999 FEW030
日本時間28日03-21時:040度から10ノットの風


マウイのカフルイ空港
PHOG 271152Z 271212 04008KT P6SM FEW045 BKN200
FM1700 05012KT P6SM FEW050 BKN200
FM2000 06018G25KT P6SM SCT050 BKN200
FM0600 05012KT P6SM SCT045
ハワイ時間27日02-07時:040度から8ノットの風
07-10時:050度から12ノットの風
10-20時:060度から18ノット、突風25ノット

20時-28日02時:050度から12ノットの風


サイパン空港
PGSN 271122Z 271212 VRB03KT P6SM FEW020
マリアナ時間27日22時-28日22時:風向不定3ノットの風


グアム空港
PGUM 271122Z 271212 VRB03KT P6SM FEW020
マリアナ時間27日22時-28日22時:風向不定3ノットの風

コメント
この記事をはてなブックマークに追加

2/26-27の航空気象通報(国内、海外)

2007年02月26日 21時44分01秒 | TAF
羽田空港
TAF RJTT 260840Z 261812 03008KT 9999 FEW030 SCT035
BECMG 0003 12008KT
日本時間27日03-09時:030度から8ノットの風
09-12時:風が変化
12-21時:120度から8ノットの風


那覇空港
ROAH 260840Z 261812 05010KT 9999 FEW030
日本時間27日03-21時:050度から10ノットの風


マウイのカフルイ空港
PHOG 261120Z 261212 06007KT P6SM VCSH SCT040
FM2000 06018G25KT P6SM SCT040
FM0500 06012G19KT P6SM SCT040
ハワイ時間26日02-10時:060度から7ノットの風
10-19時:060度から18ノット、突風25ノット
19時-27日02時:060度から12ノット、突風19ノット


サイパン空港
PGSN 261133Z 261212 06007KT P6SM SCT025 SCT040
マリアナ時間26日22時-27日22時:060度から7ノットの風


グアム空港
PGUM 261133Z 261212 07009KT P6SM SCT025 SCT040
マリアナ時間26日22時-27日22時:070度から9ノットの風

コメント
この記事をはてなブックマークに追加

2/25-26の航空気象通報(国内、海外)

2007年02月25日 21時17分51秒 | TAF
羽田空港
TAF RJTT 250847Z 251812 01012KT 9999 FEW030
BECMG 0306 08012KT
BECMG 0912 05008KT
日本時間26日03-12時:010度から12ノットの風
12-15時:風が変化
15-18時:080度から12ノットの風
18-21時:風が変化
21時:050度から8ノットの風


那覇空港
ROAH 250840Z 251812 04014KT 9999 FEW030
日本時間26日03-21時:040度から14ノットの風


マウイのカフルイ空港
PHOG 251131Z 251212 06010KT P6SM SCT040
FM2000 06012G22KT P6SM SCT040
FM0500 08010KT P6SM SCT040
ハワイ時間25日02-10時:060度から10ノットの風
10-19時:060度から12ノット、突風22ノット
19時-26日02時:080度から10ノットの風


サイパン空港
PGSN 251127Z 251212 05010KT P6SM VCSH SCT025 SCT050
マリアナ時間25日22時-26日22時:050度から10ノットの風


グアム空港
PGUM 251127Z 251212 06010KT P6SM VCSH SCT020 SCT050
マリアナ時間25日22時-26日22時:060度から10ノットの風


コメント
この記事をはてなブックマークに追加

2/24-25の航空気象通報(国内、海外)

2007年02月24日 19時40分04秒 | TAF
羽田空港
TAF RJTT 240851Z 241812 03012KT 9999 FEW030
日本時間25日03-21時:030度から12ノットの風


那覇空港
ROAH 240842Z 241812 12008KT 9999 FEW025 SCT035
TEMPO 0612 4000 SHRA
BECMG 0912 05014KT
日本時間25日03-18時:120度から8ノットの風
18-21時:風が変化
21時:050度から14ノットの風
、但し、15-21時は一時、

マウイのカフルイ空港
PHOG 241140Z 241212 06008KT P6SM SCT060
FM2000 06015G22KT P6SM FEW035 SCT050
FM0600 06012KT P6SM SCT050
ハワイ時間24日02-10時:060度から8ノットの風
10-20時:060度から15ノット、突風22ノット
20時-25日02時:060度から12ノットの風


サイパン空港
PGSN 241132Z 241212 04007KT P6SM VCSH FEW020 SCT040
マリアナ時間24日22時-25日22時:040度から7ノットの風


グアム空港
PGUM 241132Z 241212 04010KT P6SM VCSH FEW020 SCT040
マリアナ時間24日22時-25日22時:040度から10ノットの風

コメント
この記事をはてなブックマークに追加